createdAt,value
2019-05-09T00:01:14.006Z,82.16
2019-05-09T00:03:44.226Z,82.08
2019-05-09T00:06:13.582Z,81.98
2019-05-09T00:08:44.234Z,81.96
2019-05-09T00:11:14.687Z,81.94
2019-05-09T00:13:43.526Z,81.86
2019-05-09T00:16:14.236Z,81.88
2019-05-09T00:18:43.999Z,81.83
2019-05-09T00:21:33.257Z,81.68
2019-05-09T00:24:03.545Z,81.65
2019-05-09T00:26:33.757Z,81.37
2019-05-09T00:29:14.105Z,81.15
2019-05-09T00:31:43.885Z,81.08
2019-05-09T00:34:19.806Z,81.12
2019-05-09T00:36:48.414Z,81.12
2019-05-09T00:39:16.602Z,81.11
2019-05-09T00:41:44.826Z,81.03
2019-05-09T00:44:14.712Z,81.04
2019-05-09T00:46:56.470Z,81.03
2019-05-09T00:49:26.451Z,81.08
2019-05-09T00:51:54.668Z,81.20
2019-05-09T00:54:24.062Z,81.22
2019-05-09T00:56:53.937Z,81.18
2019-05-09T00:59:24.083Z,81.15
2019-05-09T01:01:54.347Z,81.07
2019-05-09T01:04:24.154Z,81.00
2019-05-09T01:06:53.965Z,81.00
2019-05-09T01:09:24.195Z,81.01
2019-05-09T01:11:53.386Z,81.03
2019-05-09T01:14:23.399Z,81.02
2019-05-09T01:16:53.517Z,81.04
2019-05-09T01:19:23.323Z,80.98
2019-05-09T01:21:54.032Z,80.97
2019-05-09T01:24:23.256Z,80.85
2019-05-09T01:26:54.007Z,80.89
2019-05-09T01:29:23.068Z,80.96
2019-05-09T01:31:54.072Z,81.00
2019-05-09T01:34:24.110Z,81.03
2019-05-09T01:37:05.015Z,81.01
2019-05-09T01:39:34.558Z,81.00
2019-05-09T01:42:03.403Z,80.95
2019-05-09T01:44:33.467Z,80.86
2019-05-09T01:47:03.665Z,80.86
2019-05-09T01:49:33.896Z,80.86
2019-05-09T01:52:03.308Z,80.81
2019-05-09T01:54:33.268Z,80.78
2019-05-09T01:57:03.294Z,80.77
2019-05-09T01:59:33.925Z,80.81
2019-05-09T02:02:08.197Z,80.82
2019-05-09T02:04:33.404Z,80.81
2019-05-09T02:07:04.031Z,80.87
2019-05-09T02:09:34.209Z,80.97
2019-05-09T02:12:03.903Z,81.07
2019-05-09T02:14:36.478Z,81.16
2019-05-09T02:17:06.352Z,81.34
2019-05-09T02:19:36.196Z,81.46
2019-05-09T02:22:06.038Z,81.56
2019-05-09T02:24:34.255Z,81.64
2019-05-09T02:27:03.922Z,81.75
2019-05-09T02:29:33.734Z,81.86
2019-05-09T02:32:04.628Z,81.90
2019-05-09T02:34:35.348Z,81.95
2019-05-09T02:37:02.022Z,82.02
2019-05-09T02:39:30.239Z,82.08
2019-05-09T02:42:08.010Z,82.14
2019-05-09T02:44:29.074Z,82.17
2019-05-09T02:46:59.102Z,82.25
2019-05-09T02:49:28.701Z,82.31
2019-05-09T02:51:59.181Z,82.30
2019-05-09T02:54:29.753Z,82.28
2019-05-09T02:56:58.196Z,82.30
2019-05-09T02:59:29.804Z,82.29
2019-05-09T03:01:59.820Z,82.31
2019-05-09T03:04:28.559Z,82.31
2019-05-09T03:06:59.616Z,82.31
2019-05-09T03:09:28.629Z,82.36
2019-05-09T03:11:58.939Z,82.36
2019-05-09T03:14:28.704Z,82.38
2019-05-09T03:16:58.638Z,82.42
2019-05-09T03:19:29.409Z,82.38
2019-05-09T03:21:58.647Z,82.42
2019-05-09T03:24:28.835Z,82.42
2019-05-09T03:26:59.613Z,82.45
2019-05-09T03:29:29.597Z,82.46
2019-05-09T03:31:59.975Z,82.45
2019-05-09T03:34:30.124Z,82.45
2019-05-09T03:36:58.472Z,82.49
2019-05-09T03:39:27.641Z,82.50
2019-05-09T03:41:57.391Z,82.50
2019-05-09T03:44:28.250Z,82.50
2019-05-09T03:47:04.291Z,82.50
2019-05-09T03:49:32.517Z,82.48
2019-05-09T03:52:00.735Z,82.47
2019-05-09T03:54:28.992Z,82.53
2019-05-09T03:57:01.574Z,82.56
2019-05-09T03:59:29.788Z,82.56
2019-05-09T04:01:58.955Z,82.59
2019-05-09T04:04:28.113Z,82.57
2019-05-09T04:06:58.054Z,82.54
2019-05-09T04:09:27.450Z,82.54
2019-05-09T04:11:55.727Z,82.53
2019-05-09T04:14:28.394Z,82.51
2019-05-09T04:16:57.529Z,82.44
2019-05-09T04:19:27.591Z,82.42
2019-05-09T04:21:57.556Z,82.22
2019-05-09T04:24:27.973Z,81.90
2019-05-09T04:26:57.980Z,81.03
2019-05-09T04:29:28.414Z,79.78
2019-05-09T04:31:57.515Z,78.51
2019-05-09T04:34:27.559Z,77.66
2019-05-09T04:36:57.674Z,77.10
2019-05-09T04:39:28.416Z,76.44
2019-05-09T04:42:03.427Z,75.18
2019-05-09T04:44:49.844Z,74.27
2019-05-09T04:47:17.263Z,73.72
2019-05-09T04:49:45.914Z,73.77
2019-05-09T04:52:15.328Z,73.96
2019-05-09T04:54:43.524Z,73.62
2019-05-09T04:57:11.782Z,73.52
2019-05-09T04:59:40.003Z,73.42
2019-05-09T05:02:22.843Z,73.42
2019-05-09T05:04:51.065Z,73.62
2019-05-09T05:07:19.638Z,73.64
2019-05-09T05:09:48.444Z,73.18
2019-05-09T05:12:18.572Z,73.25
2019-05-09T05:14:47.594Z,73.76
2019-05-09T05:17:17.996Z,74.50
2019-05-09T05:19:47.623Z,75.17
2019-05-09T05:22:23.479Z,75.68
2019-05-09T05:24:59.447Z,75.87
2019-05-09T05:27:27.842Z,76.04
2019-05-09T05:29:58.259Z,76.09
2019-05-09T05:32:42.977Z,76.16
2019-05-09T05:35:17.760Z,76.26
2019-05-09T05:37:47.714Z,76.37
2019-05-09T05:40:17.781Z,76.58
2019-05-09T05:42:47.719Z,76.72
2019-05-09T05:45:18.157Z,76.83
2019-05-09T05:47:48.522Z,76.83
2019-05-09T05:50:17.688Z,76.74
2019-05-09T05:52:47.530Z,76.69
2019-05-09T05:55:18.035Z,76.69
2019-05-09T05:57:47.844Z,76.65
2019-05-09T06:00:18.096Z,76.46
2019-05-09T06:02:47.895Z,76.46
2019-05-09T06:05:18.734Z,76.51
2019-05-09T06:07:48.969Z,76.45
2019-05-09T06:10:18.938Z,76.43
2019-05-09T06:12:50.262Z,76.37
2019-05-09T06:15:18.571Z,76.37
2019-05-09T06:17:48.394Z,76.48
2019-05-09T06:20:17.714Z,76.52
2019-05-09T06:22:47.655Z,76.52
2019-05-09T06:25:20.101Z,76.43
2019-05-09T06:27:48.237Z,76.37
2019-05-09T06:30:28.209Z,76.33
2019-05-09T06:32:58.027Z,76.35
2019-05-09T06:35:28.238Z,76.36
2019-05-09T06:37:58.863Z,76.19
2019-05-09T06:40:28.773Z,75.79
2019-05-09T06:42:59.594Z,75.36
2019-05-09T06:45:48.487Z,75.03
2019-05-09T06:48:18.070Z,74.76
2019-05-09T06:50:48.218Z,74.47
2019-05-09T06:53:18.119Z,74.06
2019-05-09T06:55:47.599Z,73.97
2019-05-09T06:58:23.570Z,74.22
2019-05-09T07:00:53.491Z,74.34
2019-05-09T07:03:23.432Z,74.39
2019-05-09T07:05:53.314Z,74.51
2019-05-09T07:08:23.167Z,74.65
2019-05-09T07:10:51.395Z,74.69
2019-05-09T07:13:19.718Z,74.67
2019-05-09T07:15:48.209Z,74.74
2019-05-09T07:18:18.394Z,74.78
2019-05-09T07:20:48.314Z,74.74
2019-05-09T07:23:17.764Z,74.66
2019-05-09T07:25:59.591Z,74.59
2019-05-09T07:28:28.319Z,74.65
2019-05-09T07:31:04.725Z,74.58
2019-05-09T07:33:38.345Z,74.34
2019-05-09T07:36:08.564Z,74.12
2019-05-09T07:38:38.477Z,73.81
2019-05-09T07:41:08.982Z,73.53
2019-05-09T07:43:38.467Z,73.53
2019-05-09T07:46:24.080Z,73.34
2019-05-09T07:48:53.945Z,73.04
2019-05-09T07:51:22.146Z,72.49
2019-05-09T07:53:51.215Z,71.91
2019-05-09T07:56:19.417Z,71.70
2019-05-09T07:58:47.943Z,71.32
2019-05-09T08:01:18.782Z,71.02
2019-05-09T08:03:48.829Z,70.73
2019-05-09T08:06:18.348Z,70.42
2019-05-09T08:08:47.600Z,70.60
2019-05-09T08:11:18.033Z,70.33
2019-05-09T08:13:48.578Z,70.26
2019-05-09T08:16:18.447Z,70.10
2019-05-09T08:18:48.328Z,69.52
2019-05-09T08:21:18.094Z,68.80
2019-05-09T08:23:48.531Z,68.55
2019-05-09T08:26:18.896Z,67.98
2019-05-09T08:28:48.147Z,67.70
2019-05-09T08:31:17.801Z,66.86
2019-05-09T08:33:48.518Z,66.86
2019-05-09T08:36:19.825Z,66.63
2019-05-09T08:38:47.736Z,67.11
2019-05-09T08:41:18.608Z,67.32
2019-05-09T08:43:48.334Z,66.97
2019-05-09T08:46:18.222Z,66.61
2019-05-09T08:48:48.508Z,66.02
2019-05-09T08:51:24.443Z,65.37
2019-05-09T08:53:52.705Z,64.88
2019-05-09T08:56:20.920Z,64.40
2019-05-09T08:58:49.145Z,64.00
2019-05-09T09:01:30.639Z,63.82
2019-05-09T09:03:48.454Z,63.38
2019-05-09T09:06:18.385Z,63.28
2019-05-09T09:08:48.265Z,63.43
2019-05-09T09:11:18.705Z,62.99
2019-05-09T09:13:48.273Z,62.57
2019-05-09T09:16:22.070Z,62.41
2019-05-09T09:18:48.056Z,61.82
2019-05-09T09:21:18.367Z,61.53
2019-05-09T09:23:50.448Z,61.05
2019-05-09T09:26:18.338Z,59.83
2019-05-09T09:28:48.492Z,59.62
2019-05-09T09:31:18.023Z,59.43
2019-05-09T09:33:48.059Z,59.25
2019-05-09T09:36:17.822Z,58.78
2019-05-09T09:38:48.010Z,58.39
2019-05-09T09:41:18.197Z,58.33
2019-05-09T09:43:47.661Z,58.04
2019-05-09T09:46:18.178Z,58.08
2019-05-09T09:48:48.015Z,58.19
2019-05-09T09:51:18.549Z,58.19
2019-05-09T09:53:48.810Z,58.51
2019-05-09T09:56:17.791Z,58.31
2019-05-09T09:58:48.666Z,58.21
2019-05-09T10:01:18.544Z,58.03
2019-05-09T10:03:47.723Z,57.77
2019-05-09T10:06:15.938Z,57.48
2019-05-09T10:08:44.255Z,57.35
2019-05-09T10:11:12.526Z,57.31
2019-05-09T10:13:40.758Z,57.66
2019-05-09T10:16:29.142Z,57.45
2019-05-09T10:18:54.278Z,57.04
2019-05-09T10:21:29.614Z,55.90
2019-05-09T10:23:57.847Z,55.09
2019-05-09T10:26:28.419Z,54.26
2019-05-09T10:28:56.639Z,53.80
2019-05-09T10:31:24.872Z,53.82
2019-05-09T10:33:53.877Z,54.28
2019-05-09T10:36:22.114Z,54.30
2019-05-09T10:38:50.351Z,54.24
2019-05-09T10:41:18.575Z,53.90
2019-05-09T10:43:49.005Z,53.67
2019-05-09T10:46:19.649Z,52.84
2019-05-09T10:48:49.623Z,52.24
2019-05-09T10:51:18.680Z,51.87
2019-05-09T10:53:48.126Z,51.76
2019-05-09T10:56:18.730Z,50.81
2019-05-09T10:58:48.255Z,50.89
2019-05-09T11:01:18.550Z,51.35
2019-05-09T11:03:48.215Z,51.44
2019-05-09T11:06:18.353Z,51.40
2019-05-09T11:08:47.869Z,51.47
2019-05-09T11:11:18.259Z,51.92
2019-05-09T11:13:48.232Z,51.99
2019-05-09T11:16:18.499Z,52.18
2019-05-09T11:18:48.270Z,52.24
2019-05-09T11:21:19.273Z,52.21
2019-05-09T11:23:48.847Z,52.52
2019-05-09T11:26:17.864Z,52.57
2019-05-09T11:28:46.565Z,52.52
2019-05-09T11:31:15.745Z,51.65
2019-05-09T11:33:44.728Z,50.19
2019-05-09T11:36:13.449Z,48.49
2019-05-09T11:38:44.176Z,47.74
2019-05-09T11:41:12.494Z,46.83
2019-05-09T11:43:41.088Z,46.69
2019-05-09T11:46:10.612Z,45.90
2019-05-09T11:48:38.811Z,45.34
2019-05-09T11:51:08.953Z,45.14
2019-05-09T11:53:36.951Z,43.77
2019-05-09T11:56:08.051Z,43.46
2019-05-09T11:58:37.816Z,43.51
2019-05-09T12:01:05.432Z,43.82
2019-05-09T12:03:33.636Z,44.55
2019-05-09T12:06:01.851Z,44.68
2019-05-09T12:08:30.061Z,45.14
2019-05-09T12:10:58.650Z,44.94
2019-05-09T12:13:26.861Z,44.70
2019-05-09T12:15:55.060Z,44.00
2019-05-09T12:18:23.278Z,43.67
2019-05-09T12:20:51.486Z,43.14
2019-05-09T12:23:20.133Z,42.77
2019-05-09T12:25:49.107Z,42.37
2019-05-09T12:28:18.977Z,41.84
2019-05-09T12:30:48.961Z,41.94
2019-05-09T12:33:18.803Z,41.77
2019-05-09T12:35:47.762Z,41.43
2019-05-09T12:38:18.092Z,41.55
2019-05-09T12:40:48.233Z,41.28
2019-05-09T12:43:18.565Z,40.63
2019-05-09T12:45:47.832Z,39.39
2019-05-09T12:48:19.280Z,38.82
2019-05-09T12:50:48.686Z,38.59
2019-05-09T12:53:18.885Z,38.83
2019-05-09T12:55:48.961Z,39.60
2019-05-09T12:58:21.786Z,40.44
2019-05-09T13:00:51.944Z,40.83
2019-05-09T13:03:19.962Z,40.86
2019-05-09T13:05:48.505Z,40.94
2019-05-09T13:08:17.752Z,40.97
2019-05-09T13:10:48.712Z,41.05
2019-05-09T13:13:18.400Z,40.69
2019-05-09T13:15:48.947Z,40.39
2019-05-09T13:18:22.807Z,40.31
2019-05-09T13:20:48.751Z,40.14
2019-05-09T13:23:17.900Z,40.68
2019-05-09T13:25:50.234Z,40.70
2019-05-09T13:28:17.610Z,40.99
2019-05-09T13:30:48.726Z,41.31
2019-05-09T13:33:18.909Z,41.59
2019-05-09T13:35:48.690Z,41.63
2019-05-09T13:38:17.961Z,41.45
2019-05-09T13:40:52.965Z,41.33
2019-05-09T13:43:19.053Z,41.44
2019-05-09T13:45:46.914Z,41.69
2019-05-09T13:48:30.387Z,42.05
2019-05-09T13:50:45.162Z,42.43
2019-05-09T13:53:13.398Z,42.17
2019-05-09T13:55:42.064Z,42.12
2019-05-09T13:58:10.559Z,42.17
2019-05-09T14:00:40.503Z,41.80
2019-05-09T14:03:08.699Z,41.88
2019-05-09T14:05:36.919Z,41.90
2019-05-09T14:08:08.005Z,41.91
2019-05-09T14:10:35.146Z,41.94
2019-05-09T14:13:09.699Z,42.09
2019-05-09T14:15:33.623Z,42.41
2019-05-09T14:18:03.417Z,42.46
2019-05-09T14:20:31.637Z,42.49
2019-05-09T14:22:59.850Z,42.53
2019-05-09T14:25:29.111Z,42.62
2019-05-09T14:27:57.469Z,42.34
2019-05-09T14:30:27.579Z,42.24
2019-05-09T14:32:55.684Z,41.89
2019-05-09T14:35:24.816Z,41.38
2019-05-09T14:37:53.330Z,40.94
2019-05-09T14:40:21.542Z,40.96
2019-05-09T14:42:49.761Z,41.22
2019-05-09T14:45:18.295Z,41.51
2019-05-09T14:47:46.463Z,41.81
2019-05-09T14:50:14.926Z,42.17
2019-05-09T14:52:43.179Z,42.56
2019-05-09T14:55:11.623Z,42.49
2019-05-09T14:57:39.841Z,42.43
2019-05-09T15:00:08.154Z,42.40
2019-05-09T15:02:38.621Z,42.66
2019-05-09T15:05:09.178Z,42.92
2019-05-09T15:07:38.727Z,43.29
2019-05-09T15:10:08.675Z,43.45
2019-05-09T15:12:39.053Z,43.47
2019-05-09T15:15:09.400Z,43.39
2019-05-09T15:17:37.796Z,43.21
2019-05-09T15:20:08.891Z,43.10
2019-05-09T15:22:38.623Z,43.23
2019-05-09T15:25:08.769Z,43.34
2019-05-09T15:27:38.512Z,43.35
2019-05-09T15:30:06.644Z,43.15
2019-05-09T15:32:34.870Z,43.13
2019-05-09T15:35:03.108Z,43.15
2019-05-09T15:37:31.339Z,43.22
2019-05-09T15:40:00.187Z,43.20
2019-05-09T15:42:30.545Z,43.36
2019-05-09T15:44:59.015Z,43.33
2019-05-09T15:47:29.831Z,43.43
2019-05-09T15:50:14.626Z,43.55
2019-05-09T15:52:28.666Z,43.53
2019-05-09T15:54:58.042Z,43.56
2019-05-09T15:57:27.562Z,43.61
2019-05-09T15:59:58.623Z,43.60
2019-05-09T16:02:28.256Z,43.63
2019-05-09T16:04:58.242Z,43.59
2019-05-09T16:07:25.687Z,43.73
2019-05-09T16:09:53.903Z,43.71
2019-05-09T16:12:22.421Z,44.31
2019-05-09T16:14:50.662Z,45.28
2019-05-09T16:17:19.322Z,45.96
2019-05-09T16:19:48.359Z,46.62
2019-05-09T16:22:18.920Z,47.16
2019-05-09T16:24:48.589Z,47.52
2019-05-09T16:27:16.414Z,47.74
2019-05-09T16:29:44.632Z,47.96
2019-05-09T16:32:13.003Z,48.19
2019-05-09T16:34:41.516Z,48.38
2019-05-09T16:37:09.737Z,48.52
2019-05-09T16:39:38.276Z,48.81
2019-05-09T16:42:06.514Z,49.04
2019-05-09T16:44:34.728Z,49.29
2019-05-09T16:47:02.944Z,49.67
2019-05-09T16:49:31.204Z,49.99
2019-05-09T16:51:59.410Z,50.24
2019-05-09T16:54:29.252Z,50.37
2019-05-09T16:56:59.955Z,50.44
2019-05-09T16:59:28.154Z,50.68
2019-05-09T17:01:57.825Z,50.83
2019-05-09T17:04:27.804Z,50.82
2019-05-09T17:06:57.699Z,50.86
2019-05-09T17:09:25.976Z,51.11
2019-05-09T17:11:54.178Z,51.36
2019-05-09T17:14:22.393Z,51.60
2019-05-09T17:16:52.889Z,51.78
2019-05-09T17:19:20.940Z,51.84
2019-05-09T17:21:58.523Z,52.00
2019-05-09T17:24:29.586Z,52.23
2019-05-09T17:26:58.020Z,52.58
2019-05-09T17:29:28.128Z,52.93
2019-05-09T17:31:58.440Z,53.24
2019-05-09T17:34:28.715Z,53.65
2019-05-09T17:36:56.384Z,53.93
2019-05-09T17:39:24.615Z,54.11
2019-05-09T17:41:53.238Z,54.39
2019-05-09T17:44:21.516Z,54.59
2019-05-09T17:46:49.705Z,54.77
2019-05-09T17:49:17.914Z,55.11
2019-05-09T17:51:48.242Z,55.48
2019-05-09T17:54:18.097Z,55.84
2019-05-09T17:56:48.245Z,56.28
2019-05-09T17:59:18.392Z,56.78
2019-05-09T18:01:48.220Z,57.14
2019-05-09T18:04:17.924Z,57.58
2019-05-09T18:06:48.711Z,57.99
2019-05-09T18:09:16.010Z,58.34
2019-05-09T18:11:44.238Z,58.68
2019-05-09T18:14:12.707Z,58.99
2019-05-09T18:16:40.906Z,59.30
2019-05-09T18:19:09.148Z,59.54
2019-05-09T18:21:50.420Z,59.80
2019-05-09T18:24:08.878Z,59.97
2019-05-09T18:26:38.411Z,60.07
2019-05-09T18:29:06.738Z,60.13
2019-05-09T18:31:37.481Z,60.26
2019-05-09T18:34:07.772Z,60.29
2019-05-09T18:36:38.013Z,60.51
2019-05-09T18:39:07.781Z,60.51
2019-05-09T18:41:35.844Z,60.63
2019-05-09T18:44:04.080Z,60.72
2019-05-09T18:46:32.280Z,60.88
2019-05-09T18:49:00.759Z,61.03
2019-05-09T18:51:29.252Z,61.08
2019-05-09T18:53:57.487Z,61.09
2019-05-09T18:56:26.083Z,61.08
2019-05-09T18:58:54.283Z,61.13
2019-05-09T19:01:23.069Z,61.02
2019-05-09T19:03:51.278Z,61.01
2019-05-09T19:06:19.628Z,60.96
2019-05-09T19:08:47.807Z,61.12
2019-05-09T19:11:16.046Z,61.05
2019-05-09T19:13:44.285Z,61.13
2019-05-09T19:16:14.137Z,61.15
2019-05-09T19:18:53.625Z,61.25
2019-05-09T19:21:26.024Z,61.34
2019-05-09T19:23:54.211Z,61.52
2019-05-09T19:26:37.384Z,61.68
2019-05-09T19:29:06.436Z,61.78
2019-05-09T19:31:35.169Z,61.93
2019-05-09T19:34:03.487Z,62.02
2019-05-09T19:36:31.697Z,62.16
2019-05-09T19:39:00.494Z,62.28
2019-05-09T19:41:28.723Z,62.46
2019-05-09T19:43:56.929Z,62.64
2019-05-09T19:46:25.181Z,62.71
2019-05-09T19:48:53.421Z,62.85
2019-05-09T19:51:22.016Z,63.00
2019-05-09T19:53:50.217Z,63.11
2019-05-09T19:56:18.431Z,63.27
2019-05-09T19:58:46.661Z,63.47
2019-05-09T20:01:15.194Z,63.64
2019-05-09T20:03:43.396Z,63.83
2019-05-09T20:06:11.641Z,63.98
2019-05-09T20:08:39.893Z,64.05
2019-05-09T20:11:12.189Z,64.19
2019-05-09T20:13:56.899Z,64.34
2019-05-09T20:16:27.822Z,64.49
2019-05-09T20:18:56.418Z,64.50
2019-05-09T20:21:24.624Z,64.37
2019-05-09T20:23:52.917Z,64.30
2019-05-09T20:26:21.157Z,64.29
2019-05-09T20:28:49.482Z,64.39
2019-05-09T20:31:18.003Z,64.40
2019-05-09T20:33:46.544Z,64.39
2019-05-09T20:36:15.347Z,64.47
2019-05-09T20:38:44.127Z,64.49
2019-05-09T20:41:12.794Z,64.62
2019-05-09T20:43:41.217Z,64.82
2019-05-09T20:46:10.537Z,64.90
2019-05-09T20:48:39.004Z,64.98
2019-05-09T20:51:07.480Z,65.06
2019-05-09T20:53:37.865Z,65.09
2019-05-09T20:56:06.326Z,65.14
2019-05-09T20:58:34.746Z,65.18
2019-05-09T21:01:03.222Z,65.21
2019-05-09T21:03:31.641Z,65.27
2019-05-09T21:06:00.042Z,65.40
2019-05-09T21:08:28.697Z,65.47
2019-05-09T21:10:58.027Z,65.56
2019-05-09T21:13:26.545Z,65.62
2019-05-09T21:15:54.933Z,65.73
2019-05-09T21:18:23.393Z,65.88
2019-05-09T21:20:51.928Z,65.98
2019-05-09T21:23:24.911Z,66.06
2019-05-09T21:25:50.806Z,66.07
2019-05-09T21:28:19.216Z,66.14
2019-05-09T21:30:47.699Z,66.22
2019-05-09T21:33:16.092Z,66.27
2019-05-09T21:35:44.318Z,66.24
2019-05-09T21:38:12.637Z,66.28
2019-05-09T21:40:40.913Z,66.33
2019-05-09T21:43:09.437Z,66.34
2019-05-09T21:45:37.641Z,66.37
2019-05-09T21:48:06.131Z,66.51
2019-05-09T21:50:34.430Z,66.54
2019-05-09T21:53:03.062Z,66.59
2019-05-09T21:55:31.265Z,66.64
2019-05-09T21:57:59.505Z,66.71
2019-05-09T22:00:31.961Z,66.81
2019-05-09T22:03:00.427Z,66.83
2019-05-09T22:05:28.650Z,66.90
2019-05-09T22:07:57.844Z,67.08
2019-05-09T22:10:26.061Z,67.16
2019-05-09T22:12:54.277Z,67.28
2019-05-09T22:15:22.514Z,67.48
2019-05-09T22:17:50.739Z,67.62
2019-05-09T22:20:19.327Z,67.78
2019-05-09T22:22:47.559Z,67.81
2019-05-09T22:25:16.179Z,67.84
2019-05-09T22:27:44.381Z,67.83
2019-05-09T22:30:13.986Z,67.91
2019-05-09T22:32:42.214Z,67.94
2019-05-09T22:35:10.422Z,67.97
2019-05-09T22:37:38.648Z,68.03
2019-05-09T22:40:10.175Z,68.22
2019-05-09T22:42:38.714Z,68.37
2019-05-09T22:45:07.301Z,68.62
2019-05-09T22:47:35.551Z,68.88
2019-05-09T22:50:04.129Z,69.13
2019-05-09T22:52:32.333Z,69.32
2019-05-09T22:55:00.543Z,69.49
2019-05-09T22:57:28.752Z,69.61
2019-05-09T22:59:56.968Z,69.73
2019-05-09T23:02:25.195Z,69.81
2019-05-09T23:04:53.413Z,69.88
2019-05-09T23:07:21.649Z,69.95
2019-05-09T23:09:50.168Z,69.99
2019-05-09T23:12:18.384Z,70.02
2019-05-09T23:14:46.616Z,70.16
2019-05-09T23:17:14.824Z,70.24
2019-05-09T23:19:43.034Z,70.30
2019-05-09T23:22:11.929Z,70.38
2019-05-09T23:24:40.649Z,70.46
2019-05-09T23:27:10.550Z,70.52
2019-05-09T23:29:38.696Z,70.54
2019-05-09T23:32:08.550Z,70.55
2019-05-09T23:34:36.805Z,70.58
2019-05-09T23:37:05.022Z,70.55
2019-05-09T23:39:38.186Z,70.55
2019-05-09T23:42:06.418Z,70.55
2019-05-09T23:44:34.960Z,70.56
2019-05-09T23:47:03.634Z,70.58
2019-05-09T23:49:31.831Z,70.63
2019-05-09T23:52:00.389Z,70.68
2019-05-09T23:54:47.690Z,70.75
2019-05-09T23:57:34.382Z,70.79
